Latest Weather Observations for Cape Nelson

IDV60801

Issued at 10:34 am EST Monday 21 August 2017 (issued every 30 minutes, with the page automatically refreshed every 10 minutes)

About weather observations | Map of weather stations | Latest weather observations for VIC | Other Formats
Station Details ID: 090184 Name: CAPE NELSON LIGHTHOUSE Lat: -38.43 Lon: 141.54 Height: 45.4 m
Data from the previous 72 hours. | See also: Recent months at Cape Nelson
Date/Time
EST
Temp
°C
App
Temp
°C
Dew
Point
°C
Rel
Hum
%
Delta-T
°C
Wind Press
QNH
hPa
Press
MSL
hPa
Rain since
9am
mm
Dir  Spd
km/h
Gust
km/h
Spd
kts
Gust
kts
21/10:30am 7.7 2.0 6.5 92 0.6 NE 26 33 14 18 1012.9 1012.9 0.0
21/10:00am 7.3 2.2 6.1 92 0.5 NNE 22 32 12 17 1013.2 1013.2 0.0
21/09:30am 6.6 1.0 5.4 92 0.5 NE 24 35 13 19 1013.3 1013.3 0.0
21/09:00am 6.3 0.3 5.1 92 0.5 NE 26 39 14 21 1013.2 1013.2 3.2
21/08:30am 6.3 0.3 5.1 92 0.5 NE 26 39 14 21 1013.1 1013.1 3.2
21/08:00am 6.2 0.9 5.0 92 0.5 NE 22 32 12 17 1013.2 1013.2 3.2
21/07:30am 5.9 0.5 4.5 91 0.6 NNE 22 32 12 17 1013.1 1013.1 3.2
21/07:00am 5.9 0.1 4.5 91 0.6 NNE 24 32 13 17 1012.9 1012.9 3.0
21/06:30am 6.0 1.0 4.5 90 0.6 NNE 20 32 11 17 1012.9 1012.9 3.0
21/06:00am 6.0 1.2 4.5 90 0.6 NNE 19 30 10 16 1012.8 1012.8 2.6
21/05:30am 6.1 0.7 4.4 89 0.7 NNE 22 33 12 18 1012.8 1012.8 2.4
21/05:00am 6.1 1.2 4.3 88 0.8 NNE 19 32 10 17 1012.9 1012.9 2.0
21/04:30am 6.0 1.1 4.0 87 0.9 NNE 19 30 10 16 1013.2 1013.2 1.8
21/04:00am 6.3 1.8 4.0 85 1.0 NNE 17 26 9 14 1013.5 1013.5 1.6
21/03:30am 6.5 1.3 3.5 81 1.3 N 20 30 11 16 1013.9 1013.9 1.0
21/03:00am 7.1 2.8 3.3 77 1.6 N 15 24 8 13 1014.2 1014.2 0.4
21/02:30am 7.7 2.7 3.4 74 1.8 NNE 19 30 10 16 1014.3 1014.3 0.2
21/02:00am 7.8 2.5 2.9 71 2.1 N 20 30 11 16 1014.4 1014.4 0.0
21/01:30am 7.8 2.6 2.5 69 2.2 N 19 28 10 15 1015.0 1015.0 0.0
21/01:00am 8.1 3.0 2.8 69 2.2 NNE 19 28 10 15 1015.3 1015.3 0.0
21/12:30am 8.3 3.2 2.8 68 2.3 NNE 19 30 10 16 1015.5 1015.5 0.0
21/12:00am 8.5 3.2 2.9 68 2.4 NNE 20 28 11 15 1016.0 1016.0 0.0
 
Date/Time
EST
Temp
°C
App
Temp
°C
Dew
Point
°C
Rel
Hum
%
Delta-T
°C
Wind Press
QNH
hPa
Press
MSL
hPa
Rain since
9am
mm
Dir  Spd
km/h
Gust
km/h
Spd
kts
Gust
kts
20/11:30pm 8.6 3.9 3.2 69 2.3 NNE 17 24 9 13 1016.4 1016.4 0.0
20/11:00pm 8.7 3.6 3.1 68 2.4 NNE 19 26 10 14 1016.8 1016.8 0.0
20/10:30pm 8.5 3.7 2.5 66 2.5 NNE 17 24 9 13 1017.2 1017.2 0.0
20/10:00pm 8.2 4.2 2.7 68 2.3 N 13 20 7 11 1017.5 1017.5 0.0
20/09:30pm 8.1 3.4 3.0 70 2.2 NNE 17 24 9 13 1017.3 1017.3 0.0
20/09:00pm 7.5 4.3 2.8 72 2.0 NNE 9 17 5 9 1017.6 1017.6 0.0
20/08:30pm 7.5 4.3 3.0 73 1.9 N 9 15 5 8 1017.8 1017.8 0.0
20/08:00pm 7.3 4.1 2.8 73 1.9 N 9 13 5 7 1017.6 1017.6 0.0
20/07:30pm 7.3 4.0 2.6 72 2.0 N 9 11 5 6 1018.3 1018.3 0.0
20/07:00pm 7.7 4.1 2.8 71 2.1 N 11 13 6 7 1018.7 1018.8 0.0
20/06:30pm 8.1 4.9 2.8 69 2.2 N 9 11 5 6 1018.7 1018.8 0.0
20/06:00pm 8.7 5.4 2.7 66 2.5 N 9 13 5 7 1018.7 1018.8 0.0
20/05:30pm 9.1 5.9 2.9 65 2.6 NE 9 13 5 7 1018.6 1018.6 0.0
20/05:00pm 9.3 6.1 3.1 65 2.7 NNE 9 11 5 6 1019.2 1019.3 0.0
20/04:30pm 10.0 7.2 3.3 63 2.9 N 7 11 4 6 1019.6 1019.7 0.0
20/04:00pm 10.5 7.3 3.3 61 3.1 N 9 15 5 8 1019.7 1019.8 0.0
20/03:30pm 11.0 7.4 2.8 57 3.6 N 11 17 6 9 1020.0 1020.1 0.0
20/03:00pm 11.4 7.3 2.2 53 3.9 N 13 20 7 11 1020.3 1020.4 0.0
20/02:30pm 11.2 6.8 2.5 55 3.8 NNE 15 20 8 11 1020.3 1020.4 0.0
20/02:00pm 12.2 7.5 3.4 55 3.9 NNE 17 24 9 13 1020.4 1020.5 0.0
20/01:30pm 12.2 7.5 3.2 54 4.0 NNE 17 26 9 14 1021.0 1021.1 0.0
20/01:00pm 11.6 6.4 2.6 54 3.9 NE 19 26 10 14 1021.9 1022.0 0.0
20/12:30pm 11.5 7.0 2.0 52 4.1 NNE 15 20 8 11 1022.6 1022.7 0.0
20/12:00pm 12.8 8.8 2.9 51 4.4 N 13 19 7 10 1023.7 1023.8 0.0
20/11:30am 11.3 6.0 3.1 57 3.6 NNW 20 28 11 15 1024.7 1024.8 0.0
20/11:00am 9.8 5.1 3.1 63 2.9 N 17 22 9 12 1024.8 1024.9 0.0
20/10:30am 9.8 5.2 3.5 65 2.7 N 17 26 9 14 1025.0 1025.1 0.0
20/10:00am 9.3 4.3 3.5 67 2.5 N 19 28 10 15 1025.5 1025.6 0.0
20/09:30am 8.8 4.0 2.8 66 2.5 N 17 26 9 14 1026.0 1026.1 0.0
20/09:00am 7.9 3.1 2.4 68 2.3 N 17 24 9 13 1026.1 1026.2 0.0
20/08:30am 6.9 2.0 2.2 72 1.9 N 17 28 9 15 1026.2 1026.3 0.0
20/08:00am 5.3 0.7 1.4 76 1.5 N 15 20 8 11 1026.4 1026.5 0.0
20/07:30am 4.4 -0.7 0.9 78 1.4 N 17 22 9 12 1026.5 1026.6 0.0
20/07:00am 4.1 -0.6 0.6 78 1.3 N 15 20 8 11 1026.3 1026.4 0.0
20/06:30am 4.2 -0.5 0.7 78 1.3 N 15 19 8 10 1026.2 1026.3 0.0
20/06:00am 4.5 -0.5 1.2 79 1.3 N 17 20 9 11 1026.2 1026.3 0.0
20/05:30am 4.3 -0.4 0.8 78 1.4 N 15 20 8 11 1026.1 1026.2 0.0
20/05:00am 4.5 -0.2 1.0 78 1.4 N 15 19 8 10 1026.2 1026.3 0.0
20/04:30am 4.5 -0.2 0.8 77 1.4 N 15 17 8 9 1026.2 1026.3 0.0
20/04:00am 4.6 -0.1 0.9 77 1.4 N 15 19 8 10 1026.4 1026.5 0.0
20/03:30am 4.8 0.5 1.1 77 1.4 N 13 17 7 9 1026.4 1026.5 0.0
20/03:00am 5.0 0.4 1.3 77 1.4 N 15 20 8 11 1026.7 1026.7 0.0
20/02:30am 4.9 0.2 1.2 77 1.5 N 15 17 8 9 1026.7 1026.7 0.0
20/02:00am 4.6 0.3 0.7 76 1.5 N 13 17 7 9 1027.1 1027.1 0.0
20/01:30am 4.9 0.2 1.0 76 1.5 N 15 17 8 9 1027.0 1027.0 0.0
20/01:00am 4.5 0.1 0.5 75 1.5 N 13 17 7 9 1027.1 1027.1 0.0
20/12:30am 4.7 0.4 0.7 75 1.5 N 13 15 7 8 1027.3 1027.3 0.0
20/12:00am 4.6 0.6 0.2 73 1.7 N 11 13 6 7 1027.5 1027.5 0.0
 
Date/Time
EST
Temp
°C
App
Temp
°C
Dew
Point
°C
Rel
Hum
%
Delta-T
°C
Wind Press
QNH
hPa
Press
MSL
hPa
Rain since
9am
mm
Dir  Spd
km/h
Gust
km/h
Spd
kts
Gust
kts
19/11:30pm 5.8 2.2 0.6 69 2.0 NNW 9 11 5 6 1027.6 1027.6 0.0
19/11:00pm 7.3 3.8 1.4 66 2.4 NNW 9 11 5 6 1027.9 1027.9 0.0
19/10:30pm 9.6 5.8 2.0 59 3.2 WNW 11 17 6 9 1028.2 1028.2 0.0
19/10:00pm 8.8 5.9 1.7 61 2.9 SE 6 13 3 7 1028.2 1028.2 0.0
19/09:30pm 8.8 6.2 1.2 59 3.1 N 4 9 2 5 1028.4 1028.4 0.0
19/09:00pm 9.8 6.7 1.2 55 3.5 NE 7 13 4 7 1028.5 1028.5 0.0
19/08:30pm 9.5 6.4 1.4 57 3.4 W 7 13 4 7 1028.6 1028.6 0.0
19/08:00pm 9.3 5.9 1.7 59 3.1 SSE 9 15 5 8 1028.2 1028.2 0.0
19/07:30pm 9.2 6.0 0.9 56 3.4 SSE 7 11 4 6 1028.2 1028.2 0.0
19/07:00pm 9.2 6.4 1.9 60 3.0 W 6 11 3 6 1028.0 1028.0 0.0
19/06:30pm 9.6 6.1 1.3 56 3.4 S 9 15 5 8 1028.0 1028.0 0.0
19/06:00pm 9.5 6.1 1.9 59 3.2 S 9 13 5 7 1027.8 1027.8 0.0
19/05:30pm 9.7 6.4 2.3 60 3.1 S 9 13 5 7 1027.8 1027.8 0.0
19/05:00pm 10.3 7.2 1.4 54 3.7 SSW 7 13 4 7 1027.8 1027.8 0.0
19/04:30pm 10.9 6.8 2.5 56 3.6 S 13 17 7 9 1027.9 1027.9 0.0
19/04:00pm 11.4 6.8 1.6 51 4.1 S 15 20 8 11 1027.9 1027.9 0.0
19/03:30pm 11.5 7.4 2.3 53 4.0 SSE 13 24 7 13 1028.2 1028.2 0.0
19/03:00pm 12.1 8.2 3.6 56 3.8 SSE 13 20 7 11 1028.3 1028.3 0.0
19/02:30pm 11.4 6.7 2.9 56 3.7 S 17 20 9 11 1028.3 1028.3 0.0
19/02:00pm 10.9 6.9 2.7 57 3.5 SSE 13 26 7 14 1028.1 1028.1 0.0
19/01:30pm 11.8 7.7 2.3 52 4.1 S 13 28 7 15 1028.3 1028.3 0.0
19/01:00pm 11.2 5.7 0.9 49 4.3 S 19 30 10 16 1028.5 1028.5 0.0
19/12:30pm 10.7 5.1 1.5 53 3.9 S 20 32 11 17 1028.5 1028.5 0.0
19/12:00pm 10.8 4.9 1.4 52 3.9 S 22 32 12 17 1028.7 1028.7 0.0
19/11:30am 10.8 5.3 1.6 53 3.9 S 20 32 11 17 1028.9 1028.9 0.0
19/11:00am 11.2 5.3 2.0 53 3.9 S 22 33 12 18 1028.9 1028.9 0.0
19/10:30am 11.2 5.3 1.5 51 4.1 S 22 33 12 18 1028.6 1028.6 0.0
19/10:00am 11.0 5.0 3.1 58 3.4 S 24 33 13 18 1028.5 1028.5 0.0
19/09:30am 10.8 4.6 2.4 56 3.6 S 24 35 13 19 1028.3 1028.3 0.0
19/09:00am 9.5 5.8 2.6 62 2.9 SSE 11 20 6 11 1028.0 1028.0 2.0
19/08:43am 10.1 3.4 3.4 63 2.9 S 28 46 15 25 1027.8 1027.8 2.0
19/08:30am 10.1 3.4 1.2 54 3.7 S 26 33 14 18 1027.6 1027.6 2.0
19/08:00am 9.5 3.0 0.4 53 3.7 S 24 37 13 20 1027.1 1027.1 2.0
19/07:30am 9.5 2.0 0.9 55 3.5 S 30 39 16 21 1026.7 1026.7 2.0
19/07:00am 9.5 3.2 1.4 57 3.3 S 24 37 13 20 1026.0 1026.1 2.0
19/06:30am 9.5 5.3 3.9 68 2.5 S 15 32 8 17 1025.6 1025.7 2.0
19/06:12am 9.5 2.6 2.8 63 2.9 S 28 48 15 26 1025.5 1025.6 2.0
19/06:00am 9.6 2.6 2.2 60 3.1 S 28 39 15 21 1025.4 1025.5 2.0
19/05:30am 9.3 2.5 3.1 65 2.7 S 28 44 15 24 1025.0 1025.1 2.0
19/05:02am 9.2 1.5 2.5 63 2.8 S 32 50 17 27 1024.8 1024.9 2.0
19/05:00am 9.3 1.5 2.9 64 2.7 S 33 50 18 27 1024.7 1024.8 2.0
19/04:43am 9.6 2.5 1.5 57 3.4 S 28 56 15 30 1024.5 1024.6 2.0
19/04:30am 9.6 1.2 1.5 57 3.4 S 35 46 19 25 1024.3 1024.4 2.0
19/04:19am 9.2 2.9 1.6 59 3.2 SSE 24 46 13 25 1024.3 1024.4 2.0
19/04:00am 9.1 4.7 2.7 64 2.7 E 15 26 8 14 1024.0 1024.1 2.0
19/03:30am 9.7 2.1 2.8 62 3.0 S 32 43 17 23 1024.1 1024.2 2.0
19/03:00am 9.5 1.4 3.0 64 2.8 S 35 46 19 25 1023.9 1024.0 2.0
19/02:30am 9.7 3.6 3.0 63 2.9 S 24 35 13 19 1023.7 1023.8 2.0
19/02:00am 9.1 2.3 3.3 67 2.5 S 28 39 15 21 1023.7 1023.8 2.0
19/01:30am 10.1 2.9 2.9 61 3.1 S 30 41 16 22 1023.5 1023.6 2.0
19/01:19am 10.1 2.9 2.9 61 3.1 S 30 48 16 26 1023.4 1023.5 2.0
19/01:00am 9.9 2.1 1.5 56 3.5 S 32 44 17 24 1023.3 1023.4 2.0
19/12:30am 10.1 2.7 3.8 65 2.8 S 32 43 17 23 1023.1 1023.2 2.0
19/12:00am 10.0 2.0 1.9 57 3.4 S 33 50 18 27 1022.8 1022.9 2.0
 
Date/Time
EST
Temp
°C
App
Temp
°C
Dew
Point
°C
Rel
Hum
%
Delta-T
°C
Wind Press
QNH
hPa
Press
MSL
hPa
Rain since
9am
mm
Dir  Spd
km/h
Gust
km/h
Spd
kts
Gust
kts
18/11:41pm 10.2 2.1 3.0 61 3.1 S 35 54 19 29 1022.8 1022.9 2.0
18/11:30pm 10.2 1.6 2.8 60 3.2 S 37 52 20 28 1023.0 1023.1 2.0
18/11:21pm 10.4 3.7 3.7 63 3.0 S 28 46 15 25 1022.8 1022.9 2.0
18/11:00pm 10.4 2.2 2.7 59 3.3 S 35 50 19 27 1022.7 1022.8 2.0
18/10:30pm 10.4 2.7 2.5 58 3.4 S 32 50 17 27 1022.5 1022.6 2.0
18/10:08pm 10.4 3.7 3.4 62 3.1 S 28 61 15 33 1022.3 1022.4 2.0
18/10:00pm 10.4 4.4 3.4 62 3.0 SSE 24 44 13 24 1022.1 1022.2 2.0
18/09:32pm 10.2 2.6 3.0 61 3.1 S 32 50 17 27 1021.8 1021.9 2.0
18/09:30pm 10.3 2.5 3.1 61 3.1 S 33 50 18 27 1022.0 1022.1 2.0
18/09:16pm 10.2 3.5 3.9 65 2.8 S 28 50 15 27 1021.9 1022.0 2.0
18/09:00pm 9.4 3.6 4.4 71 2.2 S 24 48 13 26 1021.8 1021.9 2.0
18/08:49pm 10.0 3.4 4.4 68 2.5 S 28 57 15 31 1021.6 1021.7 2.0
18/08:30pm 10.2 0.4 3.3 62 3.0 S 44 57 24 31 1021.5 1021.6 2.0
18/08:21pm 10.5 3.5 4.0 64 2.9 S 30 48 16 26 1021.2 1021.3 2.0
18/08:00pm 10.2 5.2 4.4 67 2.6 SE 20 39 11 21 1020.7 1020.8 2.0
18/07:30pm 10.5 4.7 4.2 65 2.8 SSE 24 44 13 24 1020.3 1020.4 2.0
18/07:06pm 10.5 5.6 4.9 68 2.5 E 20 46 11 25 1020.1 1020.2 2.0
18/07:00pm 10.1 6.0 4.3 67 2.6 NE 15 26 8 14 1019.9 1020.0 2.0
18/06:30pm 9.8 5.0 4.4 69 2.4 SE 19 32 10 17 1019.3 1019.4 1.8
18/06:19pm 10.1 3.6 4.5 68 2.5 S 28 46 15 25 1019.1 1019.2 1.8
18/06:00pm 9.9 5.1 4.5 69 2.4 NE 19 33 10 18 1018.8 1018.9 1.8
18/05:46pm 10.6 4.5 4.7 67 2.7 SSE 26 54 14 29 1018.6 1018.6 1.8
18/05:45pm 10.3 4.5 4.2 66 2.7 SSE 24 54 13 29 1018.7 1018.8 1.8
18/05:30pm 10.5 5.3 5.3 70 2.4 SE 22 41 12 22 1018.0 1018.0 1.8
18/05:07pm 10.6 4.6 5.4 70 2.4 SSE 26 48 14 26 1018.0 1018.0 1.8
18/05:00pm 10.3 5.4 4.9 69 2.4 E 20 37 11 20 1017.6 1017.6 1.8
18/04:30pm 9.5 3.4 4.7 72 2.1 ENE 26 46 14 25 1017.2 1017.2 1.8
18/04:21pm 10.5 4.0 4.6 67 2.7 SSE 28 48 15 26 1016.7 1016.7 1.8
18/04:00pm 10.1 4.0 4.7 69 2.4 SSE 26 46 14 25 1016.9 1016.9 1.8
18/03:30pm 11.2 6.4 5.5 68 2.6 NE 20 35 11 19 1016.4 1016.4 1.8
18/03:00pm 10.3 6.3 6.5 77 1.8 NE 17 30 9 16 1016.0 1016.0 1.8
18/02:38pm 8.9 2.4 4.7 75 1.9 SSE 28 52 15 28 1015.8 1015.8 1.8
18/02:30pm 9.5 2.2 4.7 72 2.1 SSE 32 46 17 25 1015.7 1015.7 1.6
18/02:00pm 11.4 5.7 4.8 64 3.0 SE 24 44 13 24 1014.8 1014.8 1.6
18/01:30pm 11.3 5.7 5.4 67 2.7 ENE 24 37 13 20 1014.4 1014.4 1.6
18/01:00pm 10.3 3.1 6.1 75 1.9 S 33 59 18 32 1014.3 1014.3 1.6
18/12:39pm 10.3 3.5 5.3 71 2.3 S 30 54 16 29 1014.3 1014.3 1.4
18/12:30pm 11.0 5.0 5.5 69 2.5 NE 26 46 14 25 1013.6 1013.6 1.4
18/12:00pm 10.8 4.9 5.6 70 2.4 ENE 26 54 14 29 1013.6 1013.6 1.4
18/11:49am 10.8 4.3 4.7 66 2.8 NNE 28 48 15 26 1013.3 1013.3 1.4
18/11:30am 11.5 5.9 5.6 67 2.7 NNE 24 48 13 26 1013.0 1013.0 1.4
18/11:10am 10.3 4.3 5.5 72 2.2 N 26 46 14 25 1012.9 1012.9 1.4
18/11:00am 10.6 5.1 6.0 73 2.1 NE 24 41 13 22 1012.7 1012.7 1.4

Other Formats:

Comma delimited format used in spreadsheet applications
http://www.bom.gov.au/fwo/IDV60801/IDV60801.94826.axf

JavaScript Object Notation format (JSON) in row-major order
http://www.bom.gov.au/fwo/IDV60801/IDV60801.94826.json